createdAt,value
2023-04-12T00:00:51.249Z,7.60
2023-04-12T00:06:54.852Z,7.60
2023-04-12T00:12:56.863Z,7.60
2023-04-12T00:19:00.142Z,7.50
2023-04-12T00:25:02.289Z,7.60
2023-04-12T00:31:04.201Z,7.60
2023-04-12T00:37:06.050Z,7.60
2023-04-12T00:43:11.089Z,7.70
2023-04-12T00:49:13.399Z,7.70
2023-04-12T00:55:16.018Z,7.70
2023-04-12T01:01:20.086Z,7.70
2023-04-12T01:07:30.810Z,7.80
2023-04-12T01:14:26.159Z,7.90
2023-04-12T01:20:33.261Z,8.00
2023-04-12T01:26:42.257Z,8.00
2023-04-12T01:32:51.499Z,8.20
2023-04-12T01:38:54.794Z,8.20
2023-04-12T01:44:56.776Z,8.10
2023-04-12T01:51:18.893Z,8.10
2023-04-12T01:57:21.769Z,8.00
2023-04-12T02:03:24.806Z,8.00
2023-04-12T02:09:28.349Z,8.00
2023-04-12T02:15:30.454Z,8.10
2023-04-12T02:21:41.255Z,8.10
2023-04-12T02:27:43.092Z,8.00
2023-04-12T02:33:48.686Z,8.00
2023-04-12T02:39:50.438Z,7.90
2023-04-12T02:45:52.364Z,7.90
2023-04-12T02:51:55.285Z,7.90
2023-04-12T02:57:57.898Z,7.80
2023-04-12T03:04:02.279Z,7.70
2023-04-12T03:10:07.618Z,7.60
2023-04-12T03:16:23.532Z,7.60
2023-04-12T03:22:27.404Z,7.50
2023-04-12T03:28:29.232Z,7.50
2023-04-12T03:34:35.281Z,7.50
2023-04-12T03:40:37.081Z,7.40
2023-04-12T03:46:41.644Z,7.40
2023-04-12T03:52:43.376Z,7.30
2023-04-12T03:58:45.125Z,7.30
2023-04-12T04:04:47.214Z,7.20
2023-04-12T04:10:50.311Z,7.10
2023-04-12T04:16:52.120Z,7.20
2023-04-12T04:22:54.130Z,7.20
2023-04-12T04:28:55.998Z,7.20
2023-04-12T04:35:01.011Z,7.20
2023-04-12T04:41:03.840Z,7.10
2023-04-12T04:47:06.885Z,7.10
2023-04-12T04:53:08.887Z,7.30
2023-04-12T04:59:11.723Z,7.20
2023-04-12T05:05:13.885Z,7.20
2023-04-12T05:11:15.769Z,7.20
2023-04-12T05:17:17.606Z,7.40
2023-04-12T05:23:19.415Z,7.70
2023-04-12T05:29:21.402Z,7.90
2023-04-12T05:35:23.285Z,7.70
2023-04-12T05:41:26.300Z,7.70
2023-04-12T05:47:28.165Z,7.70
2023-04-12T05:53:36.931Z,7.80
2023-04-12T05:59:39.013Z,7.70
2023-04-12T06:05:41.126Z,7.80
2023-04-12T06:11:42.954Z,7.80
2023-04-12T06:17:45.372Z,8.00
2023-04-12T06:23:49.524Z,8.00
2023-04-12T06:29:51.913Z,8.00
2023-04-12T06:35:56.868Z,8.10
2023-04-12T06:42:00.007Z,8.10
2023-04-12T06:48:04.244Z,8.20
2023-04-12T06:54:09.631Z,8.40
2023-04-12T07:00:12.372Z,8.60
2023-04-12T07:06:24.871Z,8.60
2023-04-12T07:12:28.668Z,8.60
2023-04-12T07:18:31.790Z,8.60
2023-04-12T07:24:33.934Z,8.50
2023-04-12T07:30:36.180Z,8.50
2023-04-12T07:36:38.592Z,8.30
2023-04-12T07:42:42.387Z,8.30
2023-04-12T07:48:44.816Z,8.30
2023-04-12T07:54:46.708Z,8.20
2023-04-12T08:00:49.692Z,8.10
2023-04-12T08:06:52.306Z,8.20
2023-04-12T08:12:54.303Z,8.20
2023-04-12T08:18:57.058Z,8.30
2023-04-12T08:25:03.140Z,8.40
2023-04-12T08:31:05.525Z,8.40
2023-04-12T08:37:07.926Z,8.20
2023-04-12T08:43:12.237Z,8.20
2023-04-12T08:49:16.390Z,8.30
2023-04-12T08:55:18.412Z,8.20
2023-04-12T09:01:22.006Z,8.10
2023-04-12T09:07:27.801Z,8.10
2023-04-12T09:13:37.102Z,8.20
2023-04-12T09:19:38.879Z,8.30
2023-04-12T09:25:45.734Z,8.40
2023-04-12T09:31:56.792Z,8.40
2023-04-12T09:38:06.795Z,8.50
2023-04-12T09:44:08.806Z,8.70
2023-04-12T09:50:33.445Z,8.90
2023-04-12T09:56:37.886Z,8.90
2023-04-12T10:02:44.864Z,9.00
2023-04-12T10:08:49.432Z,9.20
2023-04-12T10:14:53.192Z,9.40
2023-04-12T10:20:55.847Z,9.50
2023-04-12T10:27:02.661Z,9.80
2023-04-12T10:33:10.199Z,10.00
2023-04-12T10:39:12.311Z,10.30
2023-04-12T10:45:23.369Z,10.60
2023-04-12T10:51:26.845Z,10.70
2023-04-12T10:57:44.016Z,10.50
2023-04-12T11:04:05.849Z,10.40
2023-04-12T11:10:16.528Z,10.50
2023-04-12T11:16:18.538Z,10.70
2023-04-12T11:22:22.289Z,10.70
2023-04-12T11:28:29.861Z,10.70
2023-04-12T11:34:34.338Z,10.70
2023-04-12T11:40:42.555Z,10.70
2023-04-12T11:46:44.740Z,10.60
2023-04-12T11:52:46.657Z,10.60
2023-04-12T11:58:50.400Z,10.60
2023-04-12T12:04:53.422Z,10.80
2023-04-12T12:11:06.548Z,10.80
2023-04-12T12:17:11.988Z,10.70
2023-04-12T12:23:26.930Z,10.70
2023-04-12T12:29:35.522Z,10.90
2023-04-12T12:35:37.760Z,10.80
2023-04-12T12:41:41.183Z,10.80
2023-04-12T12:47:56.247Z,10.70
2023-04-12T12:53:58.437Z,10.30
2023-04-12T13:00:00.587Z,10.60
2023-04-12T13:06:03.836Z,10.90
2023-04-12T13:12:05.854Z,10.70
2023-04-12T13:18:07.848Z,10.50
2023-04-12T13:24:10.070Z,10.40
2023-04-12T13:30:12.802Z,10.20
2023-04-12T13:36:14.617Z,10.40
2023-04-12T13:42:16.591Z,10.30
2023-04-12T13:48:20.497Z,10.20
2023-04-12T13:54:22.424Z,10.10
2023-04-12T14:00:24.509Z,10.20
2023-04-12T14:06:27.255Z,10.20
2023-04-12T14:12:29.106Z,10.40
2023-04-12T14:18:31.510Z,10.70
2023-04-12T14:24:33.488Z,10.60
2023-04-12T14:30:35.390Z,10.50
2023-04-12T14:36:37.614Z,10.60
2023-04-12T14:42:39.729Z,10.50
2023-04-12T14:48:41.657Z,10.80
2023-04-12T14:54:43.625Z,11.00
2023-04-12T15:00:46.076Z,11.40
2023-04-12T15:06:48.247Z,11.60
2023-04-12T15:12:50.164Z,11.70
2023-04-12T15:18:52.297Z,11.90
2023-04-12T15:24:56.925Z,12.10
2023-04-12T15:30:59.559Z,12.00
2023-04-12T15:37:01.638Z,12.00
2023-04-12T15:43:03.812Z,12.40
2023-04-12T15:49:06.554Z,12.50
2023-04-12T15:55:11.603Z,12.50
2023-04-12T16:01:13.550Z,12.40
2023-04-12T16:07:15.603Z,12.20
2023-04-12T16:13:18.697Z,11.90
2023-04-12T16:19:20.678Z,11.70
2023-04-12T16:25:24.473Z,11.70
2023-04-12T16:31:26.549Z,11.70
2023-04-12T16:37:29.959Z,11.70
2023-04-12T16:43:31.908Z,11.60
2023-04-12T16:49:33.706Z,11.50
2023-04-12T16:55:35.744Z,11.40
2023-04-12T17:01:37.554Z,10.40
2023-04-12T17:07:39.766Z,9.40
2023-04-12T17:13:42.283Z,8.70
2023-04-12T17:19:44.348Z,8.20
2023-04-12T17:25:46.942Z,8.20
2023-04-12T17:31:50.697Z,8.10
2023-04-12T17:37:55.001Z,8.00
2023-04-12T17:43:57.164Z,7.80
2023-04-12T17:49:59.293Z,7.50
2023-04-12T17:56:01.472Z,7.60
2023-04-12T18:02:03.804Z,7.60
2023-04-12T18:08:06.201Z,7.50
2023-04-12T18:14:08.919Z,7.50
2023-04-12T18:20:18.000Z,7.60
2023-04-12T18:26:19.979Z,7.60
2023-04-12T18:32:22.011Z,7.50
2023-04-12T18:38:23.947Z,7.30
2023-04-12T18:44:26.241Z,7.10
2023-04-12T18:50:28.459Z,6.90
2023-04-12T18:56:30.685Z,6.70
2023-04-12T19:02:34.389Z,6.60
2023-04-12T19:08:36.787Z,6.40
2023-04-12T19:14:38.736Z,6.30
2023-04-12T19:20:40.517Z,6.20
2023-04-12T19:26:47.318Z,6.20
2023-04-12T19:32:49.713Z,6.20
2023-04-12T19:38:52.188Z,6.10
2023-04-12T19:44:54.023Z,6.10
2023-04-12T19:50:56.684Z,6.20
2023-04-12T19:56:58.613Z,6.20
2023-04-12T20:03:00.694Z,6.20
2023-04-12T20:09:02.556Z,6.20
2023-04-12T20:15:08.953Z,6.20
2023-04-12T20:21:10.839Z,6.20
2023-04-12T20:27:16.794Z,6.20
2023-04-12T20:33:19.972Z,6.30
2023-04-12T20:39:24.655Z,6.40
2023-04-12T20:45:26.291Z,6.30
2023-04-12T20:51:29.947Z,6.40
2023-04-12T20:57:31.770Z,6.40
2023-04-12T21:03:36.008Z,6.40
2023-04-12T21:09:38.615Z,6.40
2023-04-12T21:15:41.826Z,6.40
2023-04-12T21:21:43.837Z,6.30
2023-04-12T21:27:47.221Z,6.20
2023-04-12T21:33:50.225Z,6.10
2023-04-12T21:39:52.834Z,6.00
2023-04-12T21:45:54.820Z,6.00
2023-04-12T21:51:57.096Z,5.90
2023-04-12T21:57:58.979Z,5.90
2023-04-12T22:04:00.978Z,5.90
2023-04-12T22:10:03.306Z,5.70
2023-04-12T22:16:06.161Z,5.60
2023-04-12T22:22:09.402Z,5.50
2023-04-12T22:28:12.244Z,5.60
2023-04-12T22:34:14.270Z,5.50
2023-04-12T22:40:16.180Z,5.50
2023-04-12T22:46:18.792Z,5.50
2023-04-12T22:52:24.325Z,5.50
2023-04-12T22:58:27.166Z,5.40
2023-04-12T23:04:29.036Z,5.50
2023-04-12T23:10:33.732Z,5.40
2023-04-12T23:16:42.440Z,5.40
2023-04-12T23:22:58.372Z,5.50
2023-04-12T23:29:03.583Z,5.50
2023-04-12T23:35:05.943Z,5.60
2023-04-12T23:41:10.136Z,5.50
2023-04-12T23:47:12.203Z,5.60
2023-04-12T23:53:14.936Z,5.60
2023-04-12T23:59:16.824Z,5.60
